AirNav   Air Wisconsin pilot careers
 
 1023 users online  

T15 Marlin Airport
Marlin, Texas, USA


FAA INFORMATION EFFECTIVE 01 FEBRUARY 2018

Location

FAA Identifier: T15
Lat/Long: 31-20-26.4000N / 096-51-07.3000W
31-20.440000N / 096-51.121667W
31.3406667 / -96.8520278
(estimated)
Elevation: 410.7 ft. / 125.2 m (surveyed)
Variation: 05E (2000)
From city: 3 miles NE of MARLIN, TX
Time zone: UTC -6 (UTC -5 during Daylight Saving Time)
Zip code: 76661

Airport Operations

Airport use: Open to the public
Activation date: 07/1960
Control tower: no
ARTCC: FORT WORTH CENTER
FSS: FORT WORTH FLIGHT SERVICE STATION
NOTAMs facility: FTW (NOTAM-D service available)
Attendance: UNATNDD
Wind indicator: lighted
Segmented circle: yes
Lights: SS-SR
Beacon: white-green (lighted land airport)
Operates sunset to sunrise.

Airport Communications

CTAF: 122.9
WACO APPROACH: 127.65
WACO DEPARTURE: 127.65
  • APCH/DEP SERVICE PROVIDED BY FORT WORTH ARTCC ON FREQS 133.3/269.5 (WACO RCAG) WHEN WACO APCH CTL CLSD.

Nearby radio navigation aids

VOR radial/distance  VOR name  Freq  Var
GNLr222/21.2GROESBECK VOR/DME108.8005E
ACTr123/28.8WACO VORTAC115.3009E
TPLr066/30.4TEMPLE VOR/DME110.4009E

 
NDB name  Hdg/Dist  Freq  Var  ID
ROBINSON124/14.840007EROB .-. --- -...
MEXIA220/25.032904ELXY .-.. -..- -.--

Airport Services

Parking: tiedowns
Airframe service: NONE
Powerplant service: NONE
Bottled oxygen: NONE
Bulk oxygen: NONE

Runway Information

Runway 17/35

Dimensions: 3021 x 50 ft. / 921 x 15 m
Surface: asphalt, in good condition
Weight bearing capacity: 
Single wheel: 4.0
Runway edge lights: low intensity
RY 17/35 NSTD LIRL; NORTH 2900 FT LGTD.
RUNWAY 17  RUNWAY 35
Latitude: 31-20.689823N31-20.191620N
Longitude: 096-51.116752W096-51.127988W
Elevation: 410.4 ft.401.9 ft.
Gradient: 0.3%0.3%
Traffic pattern: leftleft
Runway heading: 176 magnetic, 181 true356 magnetic, 001 true
Displaced threshold: no90 ft.
Markings: basic, in fair conditionbasic, in fair condition
Touchdown point: yes, no lightsyes, no lights
Obstructions: 35 ft. trees, 1030 ft. from runway, 23:1 slope to clear
+8 FT BRUSH 60 FT FM THLD 100 FT L OF CNTRLN.
4 ft. fence, 201 ft. from runway, 70 ft. right of centerline
+8 FT FENCE 82 FT RIGHT & 80-200 FT SOUTH OF DSPLCD THLD.

Airport Ownership and Management from official FAA records

Ownership: Publicly-owned
Owner: CITY OF MARLIN
PO BOX 980
MARLIN, TX 76661
Phone 254-883-1450
Manager: KENNETH KNIGHT
PO BOX 980
MARLIN, TX 76661
Phone 254-883-1450
CITY MANAGER.

Airport Operational Statistics

Aircraft operations: avg 29/month *
86% transient general aviation
14% military
* for 12-month period ending 15 March 2016

Instrument Procedures

NOTE: All procedures below are presented as PDF files. If you need a reader for these files, you should download the free Adobe Reader.

NOT FOR NAVIGATION. Please procure official charts for flight.
FAA instrument procedures published for use between 1 February 2018 at 0901Z and 1 March 2018 at 0900Z.

 
IAPs - Instrument Approach Procedures
VOR/DME OR GPS-A   download (153KB)
NOTE: Special Take-Off Minimums/Departure Procedures apply   download (70KB)

Other nearby airports with instrument procedures:

KCNW - TSTC Waco Airport (21 nm NW)
KLXY - Mexia-Limestone County Airport (25 nm NE)
KACT - Waco Regional Airport (25 nm NW)
KPWG - Mc Gregor Executive Airport (25 nm W)
KLHB - Hearne Municipal Airport (30 nm SE)
 
Loc | Ops | Rwys | IFR | FBO | Links
Com | Nav | Svcs | Stats | Notes

AirNav Hotels Sweepstakes
 
Area around T15 (Marlin Airport)
 
Road maps at: MapQuest Bing Google
 
Aerial photo
WARNING: Photo may not be current or correct
Aerial photo of T15 (Marlin Airport)
Do you have a better or more recent aerial photo of Marlin Airport that you would like to share? If so, please send us your photo.

 
Sectional chart

 
Airport distance calculator
Flying to Marlin Airport? Find the distance to fly.

From to T15

Sunrise and sunset
Times for 25-Feb-2018
 Local
(UTC-6)
 Zulu
(UTC)
Morning civil twilight06:3512:35
Sunrise07:0013:00
Sunset18:2100:21
Evening civil twilight18:4600:46

Current date and time
Zulu (UTC)  25-Feb-2018 16:38:18
Local (UTC-6)  25-Feb-2018 10:38:18
 
METAR
KCNW 
21nm NW 
251555Z 00000KT 10SM SKC 13/11 A3007
KPWG 
25nm W 
251556Z AUTO 30003KT 10SM CLR 12/11 A3008 RMK AO2 RAB15E33 SLP203 P0000 T01170111
KLXY 
25nm NE 
251615Z AUTO 15012G16KT 10SM SCT055 SCT110 13/10 A3007 RMK AO2 T01340095
KACT 
26nm NW 
251551Z 36005KT 10SM CLR 11/09 A3005 RMK AO2 SLP174 T01110094
KT35 
28nm S 
251615Z AUTO 10009KT 10SM BKN050 BKN065 OVC090 13/10 A3003 RMK AO2 LTG DSNT W T01310096
KLHB 
31nm SE 
251615Z AUTO 05006KT 10SM SCT050 BKN095 OVC120 15/10 A3009 RMK AO2 T01520095
KTPL 
31nm SW 
251551Z AUTO 12012KT 10SM CLR 13/12 A3006 RMK AO2 RAB1454E39 SLP193 P0001 T01330117
TAF
KACT 
26nm NW 
251454Z 2515/2612 09005KT P6SM VCSH BKN100 FM260000 05004KT P6SM BKN250 FM260800 02004KT 5SM BR BKN250
NOTAMs
Click for the latest NOTAMs
NOTAMs are issued by the DoD/FAA and will open in a separate window not controlled by AirNav.

 

 
 

Would you like to see your business listed on this page?

 If your business provides an interesting product or service to pilots, flight crews, aircraft, or users of the Marlin Airport, you should consider listing it here.  To start the listing process, click on the button below
 
Add a business
 

Other Pages about Marlin Airport

Update a link
 
Copyright © AirNav, LLC. All rights reserved. Privacy Policy  Contact